createdAt,value
2019-02-27T00:00:43.942Z,0.00
2019-02-27T00:01:43.627Z,0.00
2019-02-27T00:02:43.617Z,0.00
2019-02-27T00:03:43.617Z,0.00
2019-02-27T00:04:43.602Z,0.00
2019-02-27T00:05:43.566Z,0.00
2019-02-27T00:06:47.695Z,0.00
2019-02-27T00:07:43.566Z,0.00
2019-02-27T00:08:43.542Z,0.00
2019-02-27T00:09:43.559Z,0.00
2019-02-27T00:10:43.530Z,0.00
2019-02-27T00:11:46.717Z,0.00
2019-02-27T00:12:43.499Z,0.00
2019-02-27T00:13:43.511Z,0.00
2019-02-27T00:14:43.476Z,0.00
2019-02-27T00:15:43.471Z,0.00
2019-02-27T00:16:44.610Z,0.00
2019-02-27T00:17:43.457Z,0.00
2019-02-27T00:18:43.455Z,0.00
2019-02-27T00:19:43.427Z,0.00
2019-02-27T00:20:43.433Z,0.00
2019-02-27T00:21:44.180Z,0.00
2019-02-27T00:22:43.401Z,0.00
2019-02-27T00:23:43.391Z,0.00
2019-02-27T00:24:43.400Z,0.00
2019-02-27T00:25:43.379Z,0.00
2019-02-27T00:26:43.363Z,0.00
2019-02-27T00:27:43.350Z,0.00
2019-02-27T00:28:43.343Z,0.00
2019-02-27T00:29:43.339Z,0.00
2019-02-27T00:30:43.318Z,0.00
2019-02-27T00:31:46.090Z,0.00
2019-02-27T00:32:43.297Z,0.00
2019-02-27T00:33:43.293Z,0.00
2019-02-27T00:34:43.286Z,0.00
2019-02-27T00:35:43.269Z,0.00
2019-02-27T00:36:45.074Z,0.00
2019-02-27T00:37:43.240Z,0.00
2019-02-27T00:38:43.244Z,0.00
2019-02-27T00:39:43.227Z,0.00
2019-02-27T00:40:43.222Z,0.00
2019-02-27T00:41:46.003Z,0.00
2019-02-27T00:42:43.201Z,0.00
2019-02-27T00:43:43.191Z,0.00
2019-02-27T00:44:43.206Z,0.00
2019-02-27T00:45:43.167Z,0.00
2019-02-27T00:46:46.096Z,0.00
2019-02-27T00:47:43.151Z,0.00
2019-02-27T00:48:43.137Z,0.00
2019-02-27T00:49:43.134Z,0.00
2019-02-27T00:50:43.143Z,0.00
2019-02-27T00:51:44.864Z,0.00
2019-02-27T00:52:43.094Z,0.00
2019-02-27T00:53:43.095Z,0.00
2019-02-27T00:54:43.083Z,0.00
2019-02-27T00:55:43.091Z,0.00
2019-02-27T00:56:45.065Z,0.00
2019-02-27T00:57:43.045Z,0.00
2019-02-27T00:58:43.042Z,0.00
2019-02-27T00:59:43.025Z,0.00
2019-02-27T01:00:43.018Z,0.00
2019-02-27T01:01:47.222Z,0.00
2019-02-27T01:02:43.010Z,0.00
2019-02-27T01:03:42.993Z,0.00
2019-02-27T01:04:42.978Z,0.00
2019-02-27T01:05:42.973Z,0.00
2019-02-27T01:06:45.026Z,0.00
2019-02-27T01:07:42.951Z,0.00
2019-02-27T01:08:42.929Z,0.00
2019-02-27T01:09:42.923Z,0.00
2019-02-27T01:10:45.282Z,0.00
2019-02-27T01:11:42.899Z,0.00
2019-02-27T01:12:42.897Z,0.00
2019-02-27T01:13:42.887Z,0.00
2019-02-27T01:14:42.876Z,0.00
2019-02-27T01:15:44.671Z,0.00
2019-02-27T01:16:42.856Z,0.00
2019-02-27T01:17:42.840Z,0.00
2019-02-27T01:18:42.827Z,0.00
2019-02-27T01:19:43.108Z,0.00
2019-02-27T01:20:45.647Z,0.00
2019-02-27T01:21:42.803Z,0.00
2019-02-27T01:22:42.794Z,0.00
2019-02-27T01:23:44.687Z,0.00
2019-02-27T01:24:42.770Z,0.00
2019-02-27T01:25:42.766Z,0.00
2019-02-27T01:26:42.753Z,0.00
2019-02-27T01:27:42.742Z,0.00
2019-02-27T01:28:45.493Z,0.00
2019-02-27T01:29:42.716Z,0.00
2019-02-27T01:30:42.706Z,0.00
2019-02-27T01:31:42.695Z,0.00
2019-02-27T01:32:42.690Z,0.00
2019-02-27T01:33:42.681Z,0.00
2019-02-27T01:34:44.443Z,0.00
2019-02-27T01:35:42.658Z,0.00
2019-02-27T01:36:42.644Z,0.00
2019-02-27T01:37:42.634Z,0.00
2019-02-27T01:38:42.628Z,0.00
2019-02-27T01:39:44.067Z,0.00
2019-02-27T01:40:42.604Z,0.00
2019-02-27T01:41:42.600Z,0.00
2019-02-27T01:42:42.581Z,0.00
2019-02-27T01:43:42.572Z,0.00
2019-02-27T01:44:43.991Z,0.00
2019-02-27T01:45:42.562Z,0.00
2019-02-27T01:46:42.558Z,0.00
2019-02-27T01:47:42.533Z,0.00
2019-02-27T01:48:43.590Z,0.00
2019-02-27T01:49:42.505Z,0.00
2019-02-27T01:50:42.512Z,0.00
2019-02-27T01:51:42.488Z,0.00
2019-02-27T01:52:42.479Z,0.00
2019-02-27T01:53:42.470Z,0.00
2019-02-27T01:54:42.453Z,0.00
2019-02-27T01:55:42.445Z,0.00
2019-02-27T01:56:42.439Z,0.00
2019-02-27T01:57:42.431Z,0.00
2019-02-27T01:58:44.279Z,0.00
2019-02-27T01:59:42.397Z,0.00
2019-02-27T02:00:42.392Z,0.00
2019-02-27T02:01:42.384Z,0.00
2019-02-27T02:02:42.383Z,0.00
2019-02-27T02:03:42.360Z,0.00
2019-02-27T02:04:42.353Z,0.00
2019-02-27T02:05:42.340Z,0.00
2019-02-27T02:06:42.333Z,0.00
2019-02-27T02:07:42.330Z,0.00
2019-02-27T02:08:42.309Z,0.00
2019-02-27T02:09:42.296Z,0.00
2019-02-27T02:10:42.287Z,0.00
2019-02-27T02:11:42.295Z,0.00
2019-02-27T02:12:42.288Z,0.00
2019-02-27T02:13:42.261Z,0.00
2019-02-27T02:14:42.255Z,0.00
2019-02-27T02:15:42.264Z,0.00
2019-02-27T02:16:42.224Z,0.00
2019-02-27T02:17:42.215Z,0.00
2019-02-27T02:18:42.203Z,0.00
2019-02-27T02:19:42.184Z,0.00
2019-02-27T02:20:42.187Z,0.00
2019-02-27T02:21:42.164Z,0.00
2019-02-27T02:22:42.156Z,0.00
2019-02-27T02:23:42.171Z,0.00
2019-02-27T02:24:42.166Z,0.00
2019-02-27T02:25:42.127Z,0.00
2019-02-27T02:26:42.109Z,0.00
2019-02-27T02:27:42.175Z,0.00
2019-02-27T02:28:42.107Z,0.00
2019-02-27T02:29:42.086Z,0.00
2019-02-27T02:30:42.074Z,0.00
2019-02-27T02:31:42.617Z,0.00
2019-02-27T02:32:42.050Z,0.00
2019-02-27T02:33:42.040Z,0.00
2019-02-27T02:34:42.032Z,0.00
2019-02-27T02:35:42.026Z,0.00
2019-02-27T02:36:42.010Z,0.00
2019-02-27T02:37:41.995Z,0.00
2019-02-27T02:38:42.007Z,0.00
2019-02-27T02:39:41.978Z,0.00
2019-02-27T02:40:41.966Z,0.00
2019-02-27T02:41:46.818Z,0.00
2019-02-27T02:42:41.949Z,0.00
2019-02-27T02:43:42.091Z,0.00
2019-02-27T02:44:41.919Z,0.00
2019-02-27T02:45:41.911Z,0.00
2019-02-27T02:46:45.322Z,0.00
2019-02-27T02:47:41.884Z,0.00
2019-02-27T02:48:41.886Z,0.00
2019-02-27T02:49:42.519Z,0.00
2019-02-27T02:50:41.859Z,0.00
2019-02-27T02:51:41.846Z,0.00
2019-02-27T02:52:41.833Z,0.00
2019-02-27T02:53:41.819Z,0.00
2019-02-27T02:54:41.845Z,0.00
2019-02-27T02:55:47.627Z,0.00
2019-02-27T02:56:41.795Z,0.00
2019-02-27T02:57:41.777Z,0.00
2019-02-27T02:58:47.280Z,0.00
2019-02-27T02:59:41.759Z,0.00
2019-02-27T03:00:41.770Z,0.00
2019-02-27T03:01:41.740Z,0.00
2019-02-27T03:02:41.724Z,0.00
2019-02-27T03:03:41.751Z,0.00
2019-02-27T03:04:47.971Z,0.00
2019-02-27T03:05:41.707Z,0.00
2019-02-27T03:06:41.704Z,0.00
2019-02-27T03:07:44.634Z,0.00
2019-02-27T03:08:41.665Z,0.00
2019-02-27T03:09:41.648Z,0.00
2019-02-27T03:10:42.877Z,0.00
2019-02-27T03:11:41.634Z,0.00
2019-02-27T03:12:41.619Z,0.00
2019-02-27T03:13:42.718Z,0.00
2019-02-27T03:14:41.594Z,0.00
2019-02-27T03:15:41.592Z,0.00
2019-02-27T03:16:42.391Z,0.00
2019-02-27T03:17:41.559Z,0.00
2019-02-27T03:18:41.552Z,0.00
2019-02-27T03:19:42.517Z,0.00
2019-02-27T03:20:41.526Z,0.00
2019-02-27T03:21:41.515Z,0.00
2019-02-27T03:22:41.824Z,0.00
2019-02-27T03:23:41.495Z,0.00
2019-02-27T03:24:41.497Z,0.00
2019-02-27T03:25:41.943Z,0.00
2019-02-27T03:26:41.460Z,0.00
2019-02-27T03:27:41.456Z,0.00
2019-02-27T03:28:41.798Z,0.00
2019-02-27T03:29:41.437Z,0.00
2019-02-27T03:30:41.419Z,0.00
2019-02-27T03:31:41.406Z,0.00
2019-02-27T03:32:43.485Z,0.00
2019-02-27T03:33:41.388Z,0.00
2019-02-27T03:34:48.242Z,0.00
2019-02-27T03:35:41.370Z,0.00
2019-02-27T03:36:41.346Z,0.00
2019-02-27T03:37:48.088Z,0.00
2019-02-27T03:38:41.344Z,0.00
2019-02-27T03:39:41.319Z,0.00
2019-02-27T03:40:41.305Z,0.00
2019-02-27T03:41:41.296Z,0.00
2019-02-27T03:42:41.284Z,0.00
2019-02-27T03:43:45.648Z,0.00
2019-02-27T03:44:41.263Z,0.00
2019-02-27T03:45:41.261Z,0.00
2019-02-27T03:46:41.986Z,0.00
2019-02-27T03:47:41.247Z,0.00
2019-02-27T03:48:41.219Z,0.00
2019-02-27T03:49:41.208Z,0.00
2019-02-27T03:50:41.198Z,0.00
2019-02-27T03:51:41.185Z,0.00
2019-02-27T03:52:41.183Z,0.00
2019-02-27T03:53:43.230Z,0.00
2019-02-27T03:54:41.151Z,0.00
2019-02-27T03:55:41.145Z,0.00
2019-02-27T03:56:43.923Z,0.00
2019-02-27T03:57:41.120Z,0.00
2019-02-27T03:58:41.105Z,0.00
2019-02-27T03:59:42.475Z,0.00
2019-02-27T04:00:42.120Z,0.00
2019-02-27T04:01:41.081Z,0.00
2019-02-27T04:02:42.195Z,0.00
2019-02-27T04:03:41.054Z,0.00
2019-02-27T04:04:41.046Z,0.00
2019-02-27T04:05:43.638Z,0.00
2019-02-27T04:06:41.027Z,0.00
2019-02-27T04:07:41.032Z,0.00
2019-02-27T04:08:44.761Z,0.00
2019-02-27T04:09:41.011Z,0.00
2019-02-27T04:10:40.977Z,0.00
2019-02-27T04:11:42.630Z,0.00
2019-02-27T04:12:40.955Z,0.00
2019-02-27T04:13:40.949Z,0.00
2019-02-27T04:14:42.280Z,0.00
2019-02-27T04:15:40.942Z,0.00
2019-02-27T04:16:40.907Z,0.00
2019-02-27T04:17:40.900Z,0.00
2019-02-27T04:18:40.889Z,0.00
2019-02-27T04:19:40.878Z,0.00
2019-02-27T04:20:40.870Z,0.00
2019-02-27T04:21:40.849Z,0.00
2019-02-27T04:22:40.844Z,0.00
2019-02-27T04:23:40.832Z,0.00
2019-02-27T04:24:40.822Z,0.00
2019-02-27T04:25:40.809Z,0.00
2019-02-27T04:26:41.923Z,0.00
2019-02-27T04:27:40.796Z,0.00
2019-02-27T04:28:40.769Z,0.00
2019-02-27T04:29:41.739Z,0.00
2019-02-27T04:30:40.755Z,0.00
2019-02-27T04:31:40.747Z,0.00
2019-02-27T04:32:40.741Z,0.00
2019-02-27T04:33:40.722Z,0.00
2019-02-27T04:34:40.702Z,0.00
2019-02-27T04:35:40.696Z,0.00
2019-02-27T04:36:40.691Z,0.00
2019-02-27T04:37:40.679Z,0.00
2019-02-27T04:38:40.669Z,0.00
2019-02-27T04:39:40.650Z,0.00
2019-02-27T04:40:41.753Z,0.00
2019-02-27T04:41:40.623Z,0.00
2019-02-27T04:42:40.609Z,0.00
2019-02-27T04:43:40.604Z,0.00
2019-02-27T04:44:40.600Z,0.00
2019-02-27T04:45:40.587Z,0.00
2019-02-27T04:46:40.580Z,0.00
2019-02-27T04:47:40.563Z,0.00
2019-02-27T04:48:40.562Z,0.00
2019-02-27T04:49:40.536Z,0.00
2019-02-27T04:50:41.739Z,0.00
2019-02-27T04:51:40.515Z,0.00
2019-02-27T04:52:40.504Z,0.00
2019-02-27T04:53:40.867Z,0.00
2019-02-27T04:54:41.686Z,0.00
2019-02-27T04:55:40.471Z,0.00
2019-02-27T04:56:40.461Z,0.00
2019-02-27T04:57:40.453Z,0.00
2019-02-27T04:58:42.743Z,0.00
2019-02-27T04:59:40.428Z,0.00
2019-02-27T05:00:40.413Z,0.00
2019-02-27T05:01:40.395Z,0.00
2019-02-27T05:02:40.398Z,0.00
2019-02-27T05:03:40.382Z,0.00
2019-02-27T05:04:40.376Z,0.00
2019-02-27T05:05:41.401Z,0.00
2019-02-27T05:06:40.346Z,0.00
2019-02-27T05:07:40.339Z,0.00
2019-02-27T05:08:40.332Z,0.00
2019-02-27T05:09:40.315Z,0.00
2019-02-27T05:10:40.738Z,0.00
2019-02-27T05:11:40.293Z,0.00
2019-02-27T05:12:40.276Z,0.00
2019-02-27T05:13:40.262Z,0.00
2019-02-27T05:14:40.251Z,0.00
2019-02-27T05:15:40.243Z,0.00
2019-02-27T05:16:40.245Z,0.00
2019-02-27T05:17:40.221Z,0.00
2019-02-27T05:18:40.224Z,0.00
2019-02-27T05:19:40.213Z,0.00
2019-02-27T05:20:40.203Z,0.00
2019-02-27T05:21:40.189Z,0.00
2019-02-27T05:22:40.162Z,0.00
2019-02-27T05:23:40.158Z,0.00
2019-02-27T05:24:41.006Z,0.00
2019-02-27T05:25:40.162Z,0.00
2019-02-27T05:26:40.129Z,0.00
2019-02-27T05:27:40.099Z,0.00
2019-02-27T05:28:40.103Z,0.00
2019-02-27T05:29:40.086Z,0.00
2019-02-27T05:30:40.074Z,0.00
2019-02-27T05:31:40.062Z,0.00
2019-02-27T05:32:40.060Z,0.00
2019-02-27T05:33:40.037Z,0.00
2019-02-27T05:34:40.030Z,0.00
2019-02-27T05:35:40.027Z,0.00
2019-02-27T05:36:40.007Z,0.00
2019-02-27T05:37:40.009Z,0.00
2019-02-27T05:38:41.061Z,0.00
2019-02-27T05:39:39.966Z,0.00
2019-02-27T05:40:39.967Z,0.00
2019-02-27T05:41:39.944Z,0.00
2019-02-27T05:42:39.937Z,0.00
2019-02-27T05:43:39.933Z,0.00
2019-02-27T05:44:39.925Z,0.00
2019-02-27T05:45:39.903Z,0.00
2019-02-27T05:46:39.886Z,0.00
2019-02-27T05:47:44.810Z,0.00
2019-02-27T05:48:41.014Z,0.00
2019-02-27T05:49:39.962Z,0.00
2019-02-27T05:50:39.867Z,0.00
2019-02-27T05:51:39.840Z,0.00
2019-02-27T05:52:39.836Z,0.00
2019-02-27T05:53:39.831Z,4.00
2019-02-27T05:54:39.804Z,4.00
2019-02-27T05:55:39.824Z,0.00
2019-02-27T05:56:39.786Z,0.00
2019-02-27T05:57:39.768Z,4.00
2019-02-27T05:58:39.769Z,0.00
2019-02-27T05:59:39.759Z,4.00
2019-02-27T06:00:39.737Z,4.00
2019-02-27T06:01:39.731Z,4.00
2019-02-27T06:02:41.909Z,8.00
2019-02-27T06:03:39.702Z,8.00
2019-02-27T06:04:39.691Z,8.00
2019-02-27T06:05:49.265Z,12.00
2019-02-27T06:06:39.668Z,12.00
2019-02-27T06:07:39.646Z,20.00
2019-02-27T06:08:39.644Z,20.00
2019-02-27T06:09:41.408Z,24.00
2019-02-27T06:10:39.634Z,28.00
2019-02-27T06:11:39.608Z,32.00
2019-02-27T06:12:40.752Z,40.00
2019-02-27T06:13:51.184Z,44.00
2019-02-27T06:14:39.572Z,48.00
2019-02-27T06:15:39.590Z,56.00
2019-02-27T06:16:45.599Z,64.00
2019-02-27T06:17:43.292Z,72.00
2019-02-27T06:18:39.530Z,80.00
2019-02-27T06:19:39.555Z,88.00
2019-02-27T06:20:41.946Z,96.00
2019-02-27T06:21:39.503Z,104.00
2019-02-27T06:22:39.495Z,116.00
2019-02-27T06:23:39.499Z,128.00
2019-02-27T06:24:39.460Z,136.00
2019-02-27T06:25:39.447Z,148.00
2019-02-27T06:26:39.438Z,156.00
2019-02-27T06:27:39.941Z,168.00
2019-02-27T06:28:39.409Z,180.00
2019-02-27T06:29:39.405Z,188.00
2019-02-27T06:30:39.401Z,204.00
2019-02-27T06:31:39.563Z,212.00
2019-02-27T06:32:39.379Z,228.00
2019-02-27T06:33:39.358Z,240.00
2019-02-27T06:34:39.347Z,248.00
2019-02-27T06:35:39.334Z,264.00
2019-02-27T06:36:42.757Z,276.00
2019-02-27T06:37:39.325Z,284.00
2019-02-27T06:38:39.300Z,300.00
2019-02-27T06:39:39.286Z,308.00
2019-02-27T06:40:42.076Z,320.00
2019-02-27T06:41:39.908Z,332.00
2019-02-27T06:42:39.260Z,348.00
2019-02-27T06:43:39.243Z,364.00
2019-02-27T06:44:39.874Z,376.00
2019-02-27T06:45:39.222Z,392.00
2019-02-27T06:46:39.208Z,400.00
2019-02-27T06:47:39.200Z,412.00
2019-02-27T06:48:43.307Z,424.00
2019-02-27T06:49:39.188Z,436.00
2019-02-27T06:50:39.164Z,452.00
2019-02-27T06:51:39.160Z,460.00
2019-02-27T06:52:40.146Z,472.00
2019-02-27T06:53:39.150Z,484.00
2019-02-27T06:54:39.128Z,492.00
2019-02-27T06:55:39.100Z,504.00
2019-02-27T06:56:39.095Z,516.00
2019-02-27T06:57:41.328Z,528.00
2019-02-27T06:58:39.079Z,540.00
2019-02-27T06:59:39.060Z,548.00
2019-02-27T07:00:39.049Z,564.00
2019-02-27T07:01:39.044Z,576.00
2019-02-27T07:02:39.025Z,580.00
2019-02-27T07:03:39.025Z,592.00
2019-02-27T07:04:39.656Z,600.00
2019-02-27T07:05:38.994Z,612.00
2019-02-27T07:06:38.983Z,620.00
2019-02-27T07:07:38.963Z,632.00
2019-02-27T07:08:38.962Z,640.00
2019-02-27T07:09:38.949Z,644.00
2019-02-27T07:10:38.930Z,648.00
2019-02-27T07:11:38.927Z,656.00
2019-02-27T07:12:38.907Z,664.00
2019-02-27T07:13:38.914Z,672.00
2019-02-27T07:14:39.282Z,680.00
2019-02-27T07:15:38.886Z,692.00
2019-02-27T07:16:38.868Z,700.00
2019-02-27T07:17:38.862Z,708.00
2019-02-27T07:18:41.489Z,720.00
2019-02-27T07:19:38.834Z,732.00
2019-02-27T07:20:38.827Z,732.00
2019-02-27T07:21:38.832Z,740.00
2019-02-27T07:22:38.806Z,752.00
2019-02-27T07:23:38.792Z,764.00
2019-02-27T07:24:38.797Z,792.00
2019-02-27T07:25:41.915Z,848.00
2019-02-27T07:26:38.773Z,912.00
2019-02-27T07:27:38.752Z,972.00
2019-02-27T07:28:43.092Z,1032.00
2019-02-27T07:29:38.759Z,1080.00
2019-02-27T07:30:39.884Z,1124.00
2019-02-27T07:31:38.701Z,1160.00
2019-02-27T07:32:38.691Z,1196.00
2019-02-27T07:33:40.691Z,1216.00
2019-02-27T07:34:38.676Z,1236.00
2019-02-27T07:35:38.663Z,1244.00
2019-02-27T07:36:39.177Z,1260.00
2019-02-27T07:37:38.639Z,1272.00
2019-02-27T07:38:39.528Z,1284.00
2019-02-27T07:39:38.615Z,1296.00
2019-02-27T07:40:42.726Z,1304.00
2019-02-27T07:41:38.597Z,1312.00
2019-02-27T07:42:38.583Z,1316.00
2019-02-27T07:43:38.577Z,1324.00
2019-02-27T07:44:38.585Z,1328.00
2019-02-27T07:45:38.554Z,1336.00
2019-02-27T07:46:38.557Z,1340.00
2019-02-27T07:47:38.540Z,1344.00
2019-02-27T07:48:38.524Z,1356.00
2019-02-27T07:49:38.514Z,1360.00
2019-02-27T07:50:38.506Z,1364.00
2019-02-27T07:51:38.496Z,1372.00
2019-02-27T07:52:38.514Z,1376.00
2019-02-27T07:53:38.482Z,1380.00
2019-02-27T07:54:38.467Z,1384.00
2019-02-27T07:55:38.463Z,1388.00
2019-02-27T07:56:38.439Z,1392.00
2019-02-27T07:57:38.443Z,1396.00
2019-02-27T07:58:38.418Z,1400.00
2019-02-27T07:59:38.787Z,1400.00
2019-02-27T08:00:38.406Z,1404.00
2019-02-27T08:01:43.776Z,1408.00
2019-02-27T08:02:38.379Z,1408.00
2019-02-27T08:03:38.384Z,1412.00
2019-02-27T08:04:38.368Z,1412.00
2019-02-27T08:05:38.359Z,1416.00
2019-02-27T08:06:38.477Z,1416.00
2019-02-27T08:07:38.342Z,1420.00
2019-02-27T08:08:38.326Z,1420.00
2019-02-27T08:09:38.319Z,1424.00
2019-02-27T08:10:38.310Z,1424.00
2019-02-27T08:11:38.299Z,1420.00
2019-02-27T08:12:38.290Z,1416.00
2019-02-27T08:13:38.287Z,1416.00
2019-02-27T08:14:38.273Z,1416.00
2019-02-27T08:15:38.260Z,1416.00
2019-02-27T08:16:38.255Z,1412.00
2019-02-27T08:17:38.780Z,1400.00
2019-02-27T08:18:38.338Z,1384.00
2019-02-27T08:19:38.242Z,1372.00
2019-02-27T08:20:38.222Z,1356.00
2019-02-27T08:21:38.214Z,1328.00
2019-02-27T08:22:38.203Z,1296.00
2019-02-27T08:23:38.196Z,1272.00
2019-02-27T08:24:38.186Z,1256.00
2019-02-27T08:25:38.177Z,1240.00
2019-02-27T08:26:38.171Z,1224.00
2019-02-27T08:27:38.156Z,1212.00
2019-02-27T08:28:38.150Z,1196.00
2019-02-27T08:29:38.135Z,1184.00
2019-02-27T08:30:38.135Z,1172.00
2019-02-27T08:31:38.121Z,1160.00
2019-02-27T08:32:38.112Z,1148.00
2019-02-27T08:33:38.107Z,1136.00
2019-02-27T08:34:38.095Z,1124.00
2019-02-27T08:35:38.094Z,1112.00
2019-02-27T08:36:38.080Z,1100.00
2019-02-27T08:37:38.070Z,1096.00
2019-02-27T08:38:38.064Z,1100.00
2019-02-27T08:39:38.058Z,1096.00
2019-02-27T08:40:38.041Z,1096.00
2019-02-27T08:41:38.033Z,1100.00
2019-02-27T08:42:40.377Z,1100.00
2019-02-27T08:43:38.018Z,1100.00
2019-02-27T08:44:38.017Z,1100.00
2019-02-27T08:45:37.999Z,1100.00
2019-02-27T08:46:37.995Z,1100.00
2019-02-27T08:47:37.987Z,1100.00
2019-02-27T08:48:37.975Z,1108.00
2019-02-27T08:49:37.971Z,1104.00
2019-02-27T08:50:37.958Z,1104.00
2019-02-27T08:51:39.799Z,1108.00
2019-02-27T08:52:37.942Z,1112.00
2019-02-27T08:53:37.936Z,1108.00
2019-02-27T08:54:37.934Z,1112.00
2019-02-27T08:55:39.202Z,1116.00
2019-02-27T08:56:37.916Z,1116.00
2019-02-27T08:57:37.904Z,1116.00
2019-02-27T08:58:37.898Z,1120.00
2019-02-27T08:59:39.987Z,1120.00
2019-02-27T09:00:37.870Z,1120.00
2019-02-27T09:01:37.952Z,1124.00
2019-02-27T09:02:39.650Z,1120.00
2019-02-27T09:03:37.853Z,1124.00
2019-02-27T09:04:37.842Z,1124.00
2019-02-27T09:05:37.832Z,1128.00
2019-02-27T09:06:37.824Z,1128.00
2019-02-27T09:07:37.833Z,1128.00
2019-02-27T09:08:37.811Z,1132.00
2019-02-27T09:09:37.806Z,1132.00
2019-02-27T09:10:37.798Z,1136.00
2019-02-27T09:11:40.113Z,1136.00
2019-02-27T09:12:37.780Z,1136.00
2019-02-27T09:13:37.781Z,1136.00
2019-02-27T09:14:37.761Z,1140.00
2019-02-27T09:15:37.752Z,1136.00
2019-02-27T09:16:37.748Z,1140.00
2019-02-27T09:17:37.747Z,1140.00
2019-02-27T09:18:37.731Z,1144.00
2019-02-27T09:19:37.726Z,1144.00
2019-02-27T09:20:37.706Z,1144.00
2019-02-27T09:21:37.703Z,1144.00
2019-02-27T09:22:37.701Z,1144.00
2019-02-27T09:23:38.573Z,1148.00
2019-02-27T09:24:37.684Z,1144.00
2019-02-27T09:25:37.682Z,1152.00
2019-02-27T09:26:37.668Z,1152.00
2019-02-27T09:27:37.653Z,1156.00
2019-02-27T09:28:37.652Z,1156.00
2019-02-27T09:29:37.639Z,1156.00
2019-02-27T09:30:37.630Z,1156.00
2019-02-27T09:31:38.456Z,1156.00
2019-02-27T09:32:37.623Z,1160.00
2019-02-27T09:33:39.078Z,1160.00
2019-02-27T09:34:37.629Z,1164.00
2019-02-27T09:35:38.772Z,1164.00
2019-02-27T09:36:37.592Z,1164.00
2019-02-27T09:37:39.400Z,1168.00
2019-02-27T09:38:37.573Z,1168.00
2019-02-27T09:39:37.569Z,1168.00
2019-02-27T09:40:38.902Z,1168.00
2019-02-27T09:41:37.558Z,1172.00
2019-02-27T09:42:37.540Z,1172.00
2019-02-27T09:43:37.547Z,1176.00
2019-02-27T09:44:37.547Z,1180.00
2019-02-27T09:45:37.530Z,1180.00
2019-02-27T09:46:37.518Z,1180.00
2019-02-27T09:47:37.511Z,1180.00
2019-02-27T09:48:37.505Z,1176.00
2019-02-27T09:49:37.965Z,1180.00
2019-02-27T09:50:37.490Z,1184.00
2019-02-27T09:51:37.483Z,1180.00
2019-02-27T09:52:37.470Z,1188.00
2019-02-27T09:53:37.501Z,1188.00
2019-02-27T09:54:37.464Z,1184.00
2019-02-27T09:55:37.452Z,1188.00
2019-02-27T09:56:37.443Z,1188.00
2019-02-27T09:57:37.440Z,1188.00
2019-02-27T09:58:37.432Z,1192.00
2019-02-27T09:59:37.425Z,1196.00
2019-02-27T10:00:37.417Z,1192.00
2019-02-27T10:01:37.407Z,1192.00
2019-02-27T10:02:37.403Z,1196.00
2019-02-27T10:03:37.398Z,1196.00
2019-02-27T10:04:37.390Z,1200.00
2019-02-27T10:05:37.549Z,1200.00
2019-02-27T10:06:37.377Z,1204.00
2019-02-27T10:07:37.364Z,1200.00
2019-02-27T10:08:37.361Z,1204.00
2019-02-27T10:09:37.359Z,1204.00
2019-02-27T10:10:37.343Z,1204.00
2019-02-27T10:11:37.360Z,1208.00
2019-02-27T10:12:37.337Z,1208.00
2019-02-27T10:13:37.935Z,1208.00
2019-02-27T10:14:37.316Z,1208.00
2019-02-27T10:15:37.323Z,1208.00
2019-02-27T10:16:37.320Z,1212.00
2019-02-27T10:17:37.303Z,1212.00
2019-02-27T10:18:37.289Z,1212.00
2019-02-27T10:19:37.292Z,1216.00
2019-02-27T10:20:38.036Z,1216.00
2019-02-27T10:21:37.280Z,1216.00
2019-02-27T10:22:37.273Z,1216.00
2019-02-27T10:23:37.269Z,1212.00
2019-02-27T10:24:37.639Z,1216.00
2019-02-27T10:25:37.251Z,1216.00
2019-02-27T10:26:37.250Z,1216.00
2019-02-27T10:27:37.241Z,1216.00
2019-02-27T10:28:39.603Z,1216.00
2019-02-27T10:29:37.225Z,1216.00
2019-02-27T10:30:37.239Z,1216.00
2019-02-27T10:31:37.215Z,1216.00
2019-02-27T10:32:37.285Z,1216.00
2019-02-27T10:33:37.203Z,1220.00
2019-02-27T10:34:37.208Z,1220.00
2019-02-27T10:35:37.202Z,1220.00
2019-02-27T10:36:39.185Z,1220.00
2019-02-27T10:37:37.223Z,1220.00
2019-02-27T10:38:40.244Z,1224.00
2019-02-27T10:39:37.651Z,1224.00
2019-02-27T10:40:37.162Z,1232.00
2019-02-27T10:41:37.160Z,1228.00
2019-02-27T10:42:37.163Z,1224.00
2019-02-27T10:43:37.152Z,1228.00
2019-02-27T10:44:37.138Z,1228.00
2019-02-27T10:45:37.136Z,1232.00
2019-02-27T10:46:37.126Z,1228.00
2019-02-27T10:47:39.818Z,1232.00
2019-02-27T10:48:37.121Z,1240.00
2019-02-27T10:49:38.312Z,1236.00
2019-02-27T10:50:37.103Z,1232.00
2019-02-27T10:51:37.130Z,1228.00
2019-02-27T10:52:37.115Z,1228.00
2019-02-27T10:53:37.096Z,1228.00
2019-02-27T10:54:39.339Z,1228.00
2019-02-27T10:55:37.101Z,1224.00
2019-02-27T10:56:37.078Z,1224.00
2019-02-27T10:57:38.539Z,1228.00
2019-02-27T10:58:37.057Z,1232.00
2019-02-27T10:59:37.058Z,1232.00
2019-02-27T11:00:37.042Z,1232.00
2019-02-27T11:01:37.084Z,1228.00
2019-02-27T11:02:37.063Z,1232.00
2019-02-27T11:03:37.025Z,1228.00
2019-02-27T11:04:38.955Z,1232.00
2019-02-27T11:05:37.022Z,1228.00
2019-02-27T11:06:37.707Z,1232.00
2019-02-27T11:07:37.018Z,1228.00
2019-02-27T11:08:37.006Z,1228.00
2019-02-27T11:09:38.365Z,1228.00
2019-02-27T11:10:36.991Z,1228.00
2019-02-27T11:11:36.984Z,1228.00
2019-02-27T11:12:36.982Z,1228.00
2019-02-27T11:13:36.978Z,1228.00
2019-02-27T11:14:36.975Z,1228.00
2019-02-27T11:15:40.851Z,1228.00
2019-02-27T11:16:36.965Z,1228.00
2019-02-27T11:17:36.959Z,1228.00
2019-02-27T11:18:36.955Z,1228.00
2019-02-27T11:19:36.951Z,1228.00
2019-02-27T11:20:36.945Z,1224.00
2019-02-27T11:21:36.938Z,1224.00
2019-02-27T11:22:36.941Z,1224.00
2019-02-27T11:23:40.928Z,1224.00
2019-02-27T11:24:36.961Z,1224.00
2019-02-27T11:25:36.919Z,1220.00
2019-02-27T11:26:36.919Z,1220.00
2019-02-27T11:27:38.963Z,1220.00
2019-02-27T11:28:36.913Z,1220.00
2019-02-27T11:29:36.911Z,1216.00
2019-02-27T11:30:37.115Z,1216.00
2019-02-27T11:31:36.889Z,1216.00
2019-02-27T11:32:36.886Z,1212.00
2019-02-27T11:33:36.875Z,1212.00
2019-02-27T11:34:36.876Z,1212.00
2019-02-27T11:35:36.875Z,1208.00
2019-02-27T11:36:39.039Z,1208.00
2019-02-27T11:37:36.862Z,1208.00
2019-02-27T11:38:36.863Z,1204.00
2019-02-27T11:39:36.864Z,1208.00
2019-02-27T11:40:41.841Z,1204.00
2019-02-27T11:41:36.843Z,1204.00
2019-02-27T11:42:36.846Z,1200.00
2019-02-27T11:43:37.903Z,1200.00
2019-02-27T11:44:36.880Z,1200.00
2019-02-27T11:45:37.629Z,1200.00
2019-02-27T11:46:38.201Z,1196.00
2019-02-27T11:47:36.816Z,1192.00
2019-02-27T11:48:36.811Z,1196.00
2019-02-27T11:49:38.746Z,1196.00
2019-02-27T11:50:36.808Z,1192.00
2019-02-27T11:51:36.812Z,1192.00
2019-02-27T11:52:36.793Z,1188.00
2019-02-27T11:53:36.793Z,1188.00
2019-02-27T11:54:36.786Z,1188.00
2019-02-27T11:55:36.783Z,1188.00
2019-02-27T11:56:36.776Z,1192.00
2019-02-27T11:57:36.782Z,1188.00
2019-02-27T11:58:38.461Z,1188.00
2019-02-27T11:59:36.771Z,1184.00
2019-02-27T12:00:36.760Z,1184.00
2019-02-27T12:01:36.758Z,1180.00
2019-02-27T12:02:37.826Z,1180.00
2019-02-27T12:03:36.757Z,1180.00
2019-02-27T12:04:36.746Z,1176.00
2019-02-27T12:05:36.734Z,1176.00
2019-02-27T12:06:41.316Z,1176.00
2019-02-27T12:07:36.732Z,1172.00
2019-02-27T12:08:36.733Z,1172.00
2019-02-27T12:09:36.727Z,1172.00
2019-02-27T12:10:36.723Z,1172.00
2019-02-27T12:11:36.720Z,1168.00
2019-02-27T12:12:36.712Z,1168.00
2019-02-27T12:13:36.706Z,1168.00
2019-02-27T12:14:36.709Z,1172.00
2019-02-27T12:15:36.706Z,1172.00
2019-02-27T12:16:36.690Z,1164.00
2019-02-27T12:17:36.697Z,1164.00
2019-02-27T12:18:36.685Z,1164.00
2019-02-27T12:19:36.690Z,1164.00
2019-02-27T12:20:36.681Z,1160.00
2019-02-27T12:21:36.678Z,1160.00
2019-02-27T12:22:36.674Z,1160.00
2019-02-27T12:23:36.666Z,1156.00
2019-02-27T12:24:36.661Z,1156.00
2019-02-27T12:25:36.657Z,1156.00
2019-02-27T12:26:37.595Z,1156.00
2019-02-27T12:27:48.605Z,1152.00
2019-02-27T12:28:36.653Z,1152.00
2019-02-27T12:29:36.643Z,1152.00
2019-02-27T12:30:37.432Z,1148.00
2019-02-27T12:31:36.642Z,1144.00
2019-02-27T12:32:36.645Z,1144.00
2019-02-27T12:33:36.640Z,1140.00
2019-02-27T12:34:37.064Z,1140.00
2019-02-27T12:35:36.629Z,1136.00
2019-02-27T12:36:36.626Z,1132.00
2019-02-27T12:37:36.628Z,1136.00
2019-02-27T12:38:39.271Z,1132.00
2019-02-27T12:39:36.615Z,1128.00
2019-02-27T12:40:36.609Z,1128.00
2019-02-27T12:41:36.602Z,1128.00